createdAt,value
2022-08-27T00:00:18.946Z,98761.38
2022-08-27T00:02:46.255Z,98768.09
2022-08-27T00:05:16.760Z,98775.78
2022-08-27T00:07:45.317Z,98776.63
2022-08-27T00:10:15.456Z,98773.31
2022-08-27T00:12:44.361Z,98774.56
2022-08-27T00:15:13.146Z,98777.06
2022-08-27T00:17:46.226Z,98774.97
2022-08-27T00:20:16.555Z,98774.13
2022-08-27T00:22:44.211Z,98780.41
2022-08-27T00:25:12.839Z,98791.88
2022-08-27T00:27:41.103Z,98798.38
2022-08-27T00:30:13.588Z,98788.97
2022-08-27T00:32:41.603Z,98798.56
2022-08-27T00:35:09.975Z,98805.25
2022-08-27T00:37:37.467Z,98802.50
2022-08-27T00:40:05.744Z,98803.59
2022-08-27T00:42:33.181Z,98808.59
2022-08-27T00:45:00.649Z,98814.84
2022-08-27T00:47:32.298Z,98817.13
2022-08-27T00:50:05.918Z,98811.91
2022-08-27T00:52:35.826Z,98811.50
2022-08-27T00:55:07.086Z,98817.56
2022-08-27T00:57:36.255Z,98813.78
2022-08-27T01:00:06.346Z,98809.00
2022-08-27T01:02:35.691Z,98818.19
2022-08-27T01:05:06.983Z,98817.75
2022-08-27T01:07:38.185Z,98812.94
2022-08-27T01:10:10.593Z,98827.34
2022-08-27T01:12:38.700Z,98819.84
2022-08-27T01:15:10.021Z,98823.38
2022-08-27T01:17:42.185Z,98824.44
2022-08-27T01:20:15.717Z,98825.88
2022-08-27T01:22:51.374Z,98827.13
2022-08-27T01:25:21.728Z,98840.25
2022-08-27T01:27:49.789Z,98851.59
2022-08-27T01:30:20.903Z,98855.25
2022-08-27T01:32:50.072Z,98851.41
2022-08-27T01:35:18.565Z,98851.69
2022-08-27T01:37:48.693Z,98860.00
2022-08-27T01:40:17.298Z,98864.53
2022-08-27T01:42:49.172Z,98851.28
2022-08-27T01:45:23.410Z,98858.03
2022-08-27T01:47:51.041Z,98853.88
2022-08-27T01:50:21.319Z,98865.16
2022-08-27T01:52:48.794Z,98861.47
2022-08-27T01:55:20.042Z,98867.34
2022-08-27T01:57:49.220Z,98864.78
2022-08-27T02:00:19.730Z,98862.84
2022-08-27T02:02:48.453Z,98864.28
2022-08-27T02:05:17.100Z,98873.44
2022-08-27T02:07:45.819Z,98873.06
2022-08-27T02:10:16.321Z,98885.31
2022-08-27T02:12:43.936Z,98877.50
2022-08-27T02:15:13.045Z,98880.69
2022-08-27T02:17:40.438Z,98900.38
2022-08-27T02:20:10.037Z,98906.50
2022-08-27T02:22:37.138Z,98901.97
2022-08-27T02:25:06.123Z,98905.09
2022-08-27T02:27:37.896Z,98911.00
2022-08-27T02:30:06.850Z,98914.41
2022-08-27T02:32:35.738Z,98915.63
2022-08-27T02:35:03.180Z,98915.00
2022-08-27T02:37:30.750Z,98915.84
2022-08-27T02:39:58.646Z,98923.75
2022-08-27T02:42:26.077Z,98923.00
2022-08-27T02:44:53.485Z,98914.75
2022-08-27T02:47:20.912Z,98922.88
2022-08-27T02:49:49.832Z,98925.44
2022-08-27T02:52:25.003Z,98922.81
2022-08-27T02:54:53.110Z,98918.72
2022-08-27T02:57:20.523Z,98918.22
2022-08-27T02:59:47.933Z,98922.88
2022-08-27T03:02:15.585Z,98928.34
2022-08-27T03:04:43.809Z,98926.59
2022-08-27T03:07:18.506Z,98918.09
2022-08-27T03:09:46.701Z,98935.63
2022-08-27T03:12:14.114Z,98939.50
2022-08-27T03:14:41.543Z,98940.50
2022-08-27T03:17:08.960Z,98934.38
2022-08-27T03:19:36.352Z,98935.16
2022-08-27T03:22:03.922Z,98936.72
2022-08-27T03:24:32.853Z,98934.19
2022-08-27T03:27:02.139Z,98938.84
2022-08-27T03:29:29.624Z,98949.06
2022-08-27T03:31:57.038Z,98948.03
2022-08-27T03:34:24.459Z,98950.84
2022-08-27T03:36:51.861Z,98942.00
2022-08-27T03:39:19.493Z,98939.94
2022-08-27T03:41:55.301Z,98943.25
2022-08-27T03:44:23.717Z,98947.13
2022-08-27T03:46:51.323Z,98961.91
2022-08-27T03:49:20.645Z,98960.63
2022-08-27T03:51:48.869Z,98957.72
2022-08-27T03:54:16.302Z,98959.78
2022-08-27T03:56:43.832Z,98956.50
2022-08-27T03:59:12.708Z,98955.47
2022-08-27T04:01:40.238Z,98960.00
2022-08-27T04:04:07.700Z,98957.25
2022-08-27T04:06:35.400Z,98962.78
2022-08-27T04:09:04.279Z,98956.13
2022-08-27T04:11:33.769Z,98963.53
2022-08-27T04:14:02.975Z,98965.00
2022-08-27T04:16:42.720Z,98964.44
2022-08-27T04:19:10.137Z,98970.78
2022-08-27T04:21:37.648Z,98966.63
2022-08-27T04:24:05.541Z,98977.63
2022-08-27T04:26:33.012Z,98981.13
2022-08-27T04:29:00.466Z,98974.88
2022-08-27T04:31:27.963Z,98969.88
2022-08-27T04:33:56.905Z,98977.69
2022-08-27T04:36:24.854Z,98975.75
2022-08-27T04:38:52.300Z,98979.34
2022-08-27T04:41:19.764Z,98970.78
2022-08-27T04:43:47.681Z,98969.75
2022-08-27T04:46:19.120Z,98967.63
2022-08-27T04:48:46.578Z,98977.22
2022-08-27T04:51:18.050Z,98988.03
2022-08-27T04:53:45.793Z,98984.47
2022-08-27T04:56:14.714Z,98982.56
2022-08-27T04:58:43.015Z,98992.59
2022-08-27T05:01:16.645Z,98996.81
2022-08-27T05:03:44.212Z,98987.91
2022-08-27T05:06:11.649Z,98985.00
2022-08-27T05:08:40.841Z,98991.19
2022-08-27T05:11:10.915Z,98997.97
2022-08-27T05:13:38.356Z,98995.28
2022-08-27T05:16:07.584Z,98993.03
2022-08-27T05:18:41.741Z,98993.13
2022-08-27T05:21:18.261Z,98991.16
2022-08-27T05:23:47.422Z,98996.44
2022-08-27T05:26:15.616Z,98986.56
2022-08-27T05:28:43.188Z,98994.97
2022-08-27T05:31:13.529Z,98987.84
2022-08-27T05:33:42.344Z,98999.78
2022-08-27T05:36:16.513Z,98997.09
2022-08-27T05:38:44.040Z,99005.72
2022-08-27T05:41:15.339Z,99005.59
2022-08-27T05:43:47.739Z,99003.22
2022-08-27T05:46:19.077Z,99006.41
2022-08-27T05:48:46.661Z,99008.66
2022-08-27T05:51:25.193Z,99007.16
2022-08-27T05:53:56.693Z,99005.69
2022-08-27T05:56:27.450Z,99009.28
2022-08-27T05:58:55.148Z,99009.34
2022-08-27T06:01:23.567Z,99003.28
2022-08-27T06:03:51.091Z,99001.97
2022-08-27T06:06:19.027Z,99000.22
2022-08-27T06:08:46.457Z,98999.41
2022-08-27T06:11:13.962Z,98999.13
2022-08-27T06:13:43.630Z,99004.44
2022-08-27T06:16:13.213Z,98995.81
2022-08-27T06:18:40.643Z,98995.25
2022-08-27T06:21:08.509Z,98996.91
2022-08-27T06:23:36.814Z,99004.75
2022-08-27T06:26:07.143Z,99000.38
2022-08-27T06:28:35.091Z,99001.25
2022-08-27T06:31:08.999Z,99001.50
2022-08-27T06:33:37.110Z,99009.84
2022-08-27T06:36:07.087Z,99009.38
2022-08-27T06:38:35.397Z,99007.00
2022-08-27T06:41:04.165Z,99004.19
2022-08-27T06:43:31.725Z,99007.72
2022-08-27T06:46:03.340Z,98994.84
2022-08-27T06:48:35.134Z,99001.88
2022-08-27T06:51:10.439Z,98996.88
2022-08-27T06:53:38.245Z,99005.94
2022-08-27T06:56:06.367Z,99003.31
2022-08-27T06:58:33.775Z,99008.84
2022-08-27T07:01:01.256Z,99010.75
2022-08-27T07:03:28.745Z,99012.50
2022-08-27T07:06:04.144Z,99006.53
2022-08-27T07:08:31.890Z,99011.56
2022-08-27T07:11:00.158Z,99008.66
2022-08-27T07:13:28.369Z,99008.19
2022-08-27T07:15:55.866Z,99012.72
2022-08-27T07:18:27.178Z,99006.91
2022-08-27T07:20:55.340Z,99009.22
2022-08-27T07:23:24.208Z,99010.50
2022-08-27T07:25:51.695Z,99007.78
2022-08-27T07:28:19.240Z,98998.25
2022-08-27T07:30:46.753Z,98996.78
2022-08-27T07:33:14.316Z,99005.03
2022-08-27T07:35:41.829Z,98998.81
2022-08-27T07:38:10.588Z,98991.38
2022-08-27T07:40:39.616Z,99003.34
2022-08-27T07:43:08.995Z,98996.78
2022-08-27T07:45:45.566Z,98996.78
2022-08-27T07:48:13.050Z,98987.25
2022-08-27T07:50:40.558Z,98992.38
2022-08-27T07:53:08.017Z,98994.84
2022-08-27T07:55:36.949Z,99000.72
2022-08-27T07:58:06.626Z,99003.00
2022-08-27T08:00:41.596Z,98999.44
2022-08-27T08:03:09.077Z,98990.78
2022-08-27T08:05:36.609Z,98979.91
2022-08-27T08:08:04.322Z,98992.16
2022-08-27T08:10:35.399Z,98987.16
2022-08-27T08:13:03.550Z,98988.25
2022-08-27T08:15:32.990Z,98988.91
2022-08-27T08:18:00.447Z,98986.38
2022-08-27T08:20:54.329Z,98985.84
2022-08-27T08:23:15.906Z,98982.34
2022-08-27T08:25:43.484Z,98979.31
2022-08-27T08:28:11.006Z,98976.59
2022-08-27T08:30:43.397Z,98972.66
2022-08-27T08:33:10.861Z,98972.03
2022-08-27T08:35:40.967Z,98972.47
2022-08-27T08:38:09.502Z,98963.91
2022-08-27T08:40:40.592Z,98964.78
2022-08-27T08:43:12.710Z,98962.06
2022-08-27T08:45:42.874Z,98974.75
2022-08-27T08:48:15.162Z,98976.59
2022-08-27T08:50:52.837Z,98976.19
2022-08-27T08:53:36.500Z,98978.09
2022-08-27T08:56:08.316Z,98981.41
2022-08-27T08:58:44.445Z,98976.22
2022-08-27T09:01:16.039Z,98972.84
2022-08-27T09:03:48.230Z,98978.69
2022-08-27T09:06:21.168Z,98982.56
2022-08-27T09:08:48.795Z,98975.44
2022-08-27T09:11:25.097Z,98973.78
2022-08-27T09:13:56.262Z,98975.28
2022-08-27T09:16:25.304Z,98970.94
2022-08-27T09:18:53.085Z,98969.31
2022-08-27T09:21:40.265Z,98967.03
2022-08-27T09:24:13.470Z,98970.56
2022-08-27T09:26:43.911Z,98964.53
2022-08-27T09:29:14.969Z,98964.75
2022-08-27T09:31:44.275Z,98962.63
2022-08-27T09:34:11.977Z,98960.59
2022-08-27T09:36:50.286Z,98959.09
2022-08-27T09:39:17.899Z,98958.25
2022-08-27T09:41:47.665Z,98960.78
2022-08-27T09:44:18.753Z,98957.94
2022-08-27T09:46:55.938Z,98953.09
2022-08-27T09:49:23.739Z,98952.06
2022-08-27T09:51:53.008Z,98950.63
2022-08-27T09:54:38.059Z,98940.59
2022-08-27T09:57:07.719Z,98947.88
2022-08-27T09:59:37.429Z,98941.84
2022-08-27T10:02:14.682Z,98927.63
2022-08-27T10:04:51.069Z,98926.38
2022-08-27T10:07:31.688Z,98934.78
2022-08-27T10:10:09.111Z,98928.09
2022-08-27T10:12:47.132Z,98921.41
2022-08-27T10:15:15.786Z,98927.44
2022-08-27T10:17:57.321Z,98931.00
2022-08-27T10:20:32.432Z,98934.34
2022-08-27T10:23:14.085Z,98934.97
2022-08-27T10:25:54.212Z,98935.81
2022-08-27T10:28:37.164Z,98942.47
2022-08-27T10:31:17.780Z,98929.31
2022-08-27T10:34:12.238Z,98930.97
2022-08-27T10:36:51.787Z,98935.13
2022-08-27T10:39:28.132Z,98934.97
2022-08-27T10:42:07.822Z,98934.75
2022-08-27T10:44:48.969Z,98934.78
2022-08-27T10:47:30.767Z,98937.63
2022-08-27T10:50:04.210Z,98943.09
2022-08-27T10:52:38.501Z,98933.06
2022-08-27T10:55:14.123Z,98938.88
2022-08-27T10:58:13.335Z,98934.28
2022-08-27T11:00:50.466Z,98935.38
2022-08-27T11:03:26.192Z,98927.25
2022-08-27T11:06:09.425Z,98931.41
2022-08-27T11:08:42.129Z,98926.78
2022-08-27T11:11:56.924Z,98927.25
2022-08-27T11:14:07.947Z,98930.16
2022-08-27T11:16:45.265Z,98930.03
2022-08-27T11:19:19.783Z,98930.97
2022-08-27T11:22:00.482Z,98936.00
2022-08-27T11:24:36.497Z,98931.44
2022-08-27T11:27:06.798Z,98932.91
2022-08-27T11:29:36.298Z,98934.34
2022-08-27T11:32:14.818Z,98923.91
2022-08-27T11:34:46.650Z,98933.09
2022-08-27T11:37:25.311Z,98933.09
2022-08-27T11:40:16.194Z,98936.44
2022-08-27T11:42:46.494Z,98928.69
2022-08-27T11:45:19.817Z,98932.91
2022-08-27T11:47:54.836Z,98928.94
2022-08-27T11:50:24.090Z,98930.97
2022-08-27T11:52:58.955Z,98928.94
2022-08-27T11:55:29.577Z,98935.78
2022-08-27T11:58:10.132Z,98930.53
2022-08-27T12:00:40.011Z,98934.94
2022-08-27T12:03:10.157Z,98935.53
2022-08-27T12:05:42.233Z,98943.28
2022-08-27T12:08:29.014Z,98935.75
2022-08-27T12:11:09.258Z,98928.44
2022-08-27T12:13:42.811Z,98928.25
2022-08-27T12:16:25.992Z,98932.88
2022-08-27T12:19:06.379Z,98923.94
2022-08-27T12:21:46.207Z,98914.69
2022-08-27T12:24:47.395Z,98933.50
2022-08-27T12:27:25.513Z,98930.38
2022-08-27T12:29:56.699Z,98928.91
2022-08-27T12:32:30.505Z,98933.50
2022-08-27T12:35:10.253Z,98929.34
2022-08-27T12:37:39.784Z,98929.69
2022-08-27T12:40:19.770Z,98923.06
2022-08-27T12:42:48.208Z,98930.78
2022-08-27T12:45:23.832Z,98929.16
2022-08-27T12:47:53.261Z,98937.22
2022-08-27T12:50:24.742Z,98933.53
2022-08-27T12:53:08.096Z,98934.97
2022-08-27T12:55:47.881Z,98931.22
2022-08-27T12:58:23.802Z,98936.63
2022-08-27T13:01:09.077Z,98936.84
2022-08-27T13:03:39.738Z,98934.34
2022-08-27T13:06:17.385Z,98941.44
2022-08-27T13:08:44.864Z,98928.91
2022-08-27T13:11:18.784Z,98935.59
2022-08-27T13:13:46.271Z,98941.00
2022-08-27T13:16:14.410Z,98940.81
2022-08-27T13:18:41.946Z,98936.41
2022-08-27T13:21:14.470Z,98936.44
2022-08-27T13:23:45.128Z,98931.63
2022-08-27T13:26:14.001Z,98925.59
2022-08-27T13:28:42.772Z,98935.97
2022-08-27T13:31:11.345Z,98924.72
2022-08-27T13:33:41.228Z,98938.94
2022-08-27T13:36:09.641Z,98941.22
2022-08-27T13:38:40.515Z,98932.66
2022-08-27T13:41:09.947Z,98940.81
2022-08-27T13:43:43.197Z,98934.34
2022-08-27T13:46:15.413Z,98938.09
2022-08-27T13:48:45.396Z,98939.56
2022-08-27T13:51:14.209Z,98933.09
2022-08-27T13:53:45.109Z,98940.38
2022-08-27T13:56:24.653Z,98937.25
2022-08-27T13:58:53.132Z,98946.66
2022-08-27T14:01:30.346Z,98943.91
2022-08-27T14:04:03.031Z,98946.44
2022-08-27T14:06:35.799Z,98952.91
2022-08-27T14:09:12.114Z,98947.91
2022-08-27T14:11:39.562Z,98952.69
2022-08-27T14:14:08.479Z,98950.41
2022-08-27T14:16:36.519Z,98954.13
2022-08-27T14:19:08.568Z,98960.59
2022-08-27T14:21:38.273Z,98956.03
2022-08-27T14:24:06.584Z,98963.97
2022-08-27T14:26:35.627Z,98964.78
2022-08-27T14:29:03.280Z,98963.97
2022-08-27T14:31:40.928Z,98964.19
2022-08-27T14:34:08.412Z,98963.97
2022-08-27T14:36:38.683Z,98968.78
2022-08-27T14:39:07.038Z,98972.09
2022-08-27T14:41:34.609Z,98975.84
2022-08-27T14:44:02.131Z,98971.69
2022-08-27T14:46:33.168Z,98968.75
2022-08-27T14:49:11.185Z,98979.00
2022-08-27T14:51:41.925Z,98968.53
2022-08-27T14:54:10.102Z,98978.56
2022-08-27T14:56:37.564Z,98979.84
2022-08-27T14:59:04.994Z,98983.59
2022-08-27T15:01:32.623Z,98981.91
2022-08-27T15:04:02.381Z,98974.81
2022-08-27T15:06:29.814Z,98984.00
2022-08-27T15:08:57.297Z,98974.81
2022-08-27T15:11:28.426Z,98980.44
2022-08-27T15:13:57.257Z,98979.19
2022-08-27T15:16:30.294Z,98986.72
2022-08-27T15:19:00.570Z,98987.94
2022-08-27T15:21:31.245Z,98984.19
2022-08-27T15:24:01.250Z,98995.03
2022-08-27T15:26:29.805Z,98995.81
2022-08-27T15:28:57.360Z,98999.16
2022-08-27T15:31:24.974Z,99004.81
2022-08-27T15:33:52.448Z,99002.66
2022-08-27T15:36:19.910Z,98993.66
2022-08-27T15:38:48.860Z,98997.69
2022-08-27T15:41:16.327Z,99006.00
2022-08-27T15:43:43.828Z,99003.50
2022-08-27T15:46:11.296Z,98996.16
2022-08-27T15:48:38.795Z,99014.28
2022-08-27T15:51:09.290Z,99010.75
2022-08-27T15:53:38.122Z,99019.09
2022-08-27T15:56:07.648Z,99016.00
2022-08-27T15:58:35.340Z,99011.97
2022-08-27T16:01:08.158Z,99007.66
2022-08-27T16:03:37.022Z,99017.22
2022-08-27T16:06:05.391Z,99008.50
2022-08-27T16:08:33.857Z,99022.22
2022-08-27T16:11:04.490Z,99020.75
2022-08-27T16:13:33.592Z,99028.66
2022-08-27T16:16:01.811Z,99033.50
2022-08-27T16:18:32.318Z,99027.63
2022-08-27T16:21:02.229Z,99028.84
2022-08-27T16:23:30.611Z,99034.69
2022-08-27T16:25:58.724Z,99035.06
2022-08-27T16:28:26.538Z,99035.06
2022-08-27T16:30:56.448Z,99042.22
2022-08-27T16:33:24.777Z,99034.28
2022-08-27T16:35:52.743Z,99040.56
2022-08-27T16:38:20.760Z,99044.25
2022-08-27T16:40:50.960Z,99046.41
2022-08-27T16:43:21.247Z,99042.44
2022-08-27T16:45:49.404Z,99044.50
2022-08-27T16:48:18.825Z,99048.69
2022-08-27T16:50:46.272Z,99056.81
2022-08-27T16:53:15.708Z,99047.66
2022-08-27T16:55:45.129Z,99048.69
2022-08-27T16:58:17.153Z,99047.41
2022-08-27T17:00:45.837Z,99043.47
2022-08-27T17:03:14.253Z,99054.28
2022-08-27T17:05:43.117Z,99045.06
2022-08-27T17:08:11.471Z,99044.41
2022-08-27T17:10:41.764Z,99049.22
2022-08-27T17:13:09.825Z,99053.66
2022-08-27T17:15:37.298Z,99055.94
2022-08-27T17:18:05.166Z,99053.88
2022-08-27T17:20:32.936Z,99056.19
2022-08-27T17:23:03.062Z,99050.38
2022-08-27T17:25:30.694Z,99053.44
2022-08-27T17:28:00.146Z,99054.44
2022-08-27T17:30:28.422Z,99057.56
2022-08-27T17:32:56.091Z,99045.44
2022-08-27T17:35:23.488Z,99051.88
2022-08-27T17:37:50.917Z,99048.25
2022-08-27T17:40:20.052Z,99052.81
2022-08-27T17:42:47.538Z,99059.91
2022-08-27T17:45:14.988Z,99055.94
2022-08-27T17:47:42.472Z,99055.31
2022-08-27T17:50:10.214Z,99051.78
2022-08-27T17:52:38.813Z,99050.81
2022-08-27T17:55:07.220Z,99051.72
2022-08-27T17:57:40.848Z,99050.50
2022-08-27T18:00:11.434Z,99062.16
2022-08-27T18:02:41.213Z,99058.66
2022-08-27T18:05:09.830Z,99070.06
2022-08-27T18:07:39.961Z,99060.88
2022-08-27T18:10:09.160Z,99065.44
2022-08-27T18:12:39.389Z,99057.09
2022-08-27T18:15:10.419Z,99056.91
2022-08-27T18:17:43.224Z,99062.09
2022-08-27T18:20:12.712Z,99062.56
2022-08-27T18:22:41.000Z,99065.03
2022-08-27T18:25:17.825Z,99058.56
2022-08-27T18:27:50.316Z,99068.25
2022-08-27T18:30:17.812Z,99062.75
2022-08-27T18:32:45.956Z,99063.38
2022-08-27T18:35:16.148Z,99060.72
2022-08-27T18:37:43.613Z,99066.25
2022-08-27T18:40:12.469Z,99069.19
2022-08-27T18:42:40.349Z,99062.53
2022-08-27T18:45:13.342Z,99065.59
2022-08-27T18:47:40.982Z,99063.94
2022-08-27T18:50:10.474Z,99066.22
2022-08-27T18:52:46.419Z,99066.22
2022-08-27T18:55:16.833Z,99062.41
2022-08-27T18:57:44.277Z,99060.00
2022-08-27T19:00:16.125Z,99065.16
2022-08-27T19:02:43.757Z,99067.19
2022-08-27T19:05:12.148Z,99061.88
2022-08-27T19:07:39.739Z,99065.22
2022-08-27T19:10:07.942Z,99060.81
2022-08-27T19:12:36.911Z,99063.31
2022-08-27T19:15:04.908Z,99057.78
2022-08-27T19:17:35.371Z,99051.72
2022-08-27T19:20:05.257Z,99054.84
2022-08-27T19:22:33.170Z,99053.25
2022-08-27T19:25:01.000Z,99057.84
2022-08-27T19:27:30.199Z,99057.72
2022-08-27T19:29:57.586Z,99059.41
2022-08-27T19:32:25.154Z,99054.88
2022-08-27T19:34:54.036Z,99057.78
2022-08-27T19:37:24.933Z,99060.25
2022-08-27T19:39:52.940Z,99054.88
2022-08-27T19:42:20.407Z,99062.19
2022-08-27T19:44:48.099Z,99058.63
2022-08-27T19:47:21.451Z,99056.94
2022-08-27T19:49:49.073Z,99051.84
2022-08-27T19:52:18.018Z,99052.44
2022-08-27T19:55:03.241Z,99052.72
2022-08-27T19:57:32.850Z,99047.03
2022-08-27T20:00:00.330Z,99052.84
2022-08-27T20:02:27.822Z,99053.66
2022-08-27T20:05:16.465Z,99052.25
2022-08-27T20:07:44.123Z,99044.41
2022-08-27T20:10:11.547Z,99042.56
2022-08-27T20:12:38.968Z,99048.94
2022-08-27T20:15:07.794Z,99042.72
2022-08-27T20:17:35.642Z,99041.81
2022-08-27T20:20:04.566Z,99038.88
2022-08-27T20:22:32.069Z,99038.97
2022-08-27T20:25:00.974Z,99036.75
2022-08-27T20:27:28.579Z,99036.00
2022-08-27T20:29:56.147Z,99033.34
2022-08-27T20:32:29.259Z,99025.00
2022-08-27T20:34:57.413Z,99020.56
2022-08-27T20:37:24.821Z,99032.72
2022-08-27T20:39:52.332Z,99024.34
2022-08-27T20:42:21.398Z,99031.78
2022-08-27T20:44:49.160Z,99022.22
2022-08-27T20:47:17.712Z,99026.19
2022-08-27T20:49:45.148Z,99034.66
2022-08-27T20:52:13.311Z,99022.38
2022-08-27T20:54:41.199Z,99021.38
2022-08-27T20:57:09.040Z,99022.53
2022-08-27T20:59:37.920Z,99024.25
2022-08-27T21:02:07.465Z,99020.03
2022-08-27T21:04:38.113Z,99013.38
2022-08-27T21:07:05.825Z,99014.75
2022-08-27T21:09:33.795Z,99011.91
2022-08-27T21:12:01.434Z,99009.78
2022-08-27T21:14:30.092Z,99008.50
2022-08-27T21:16:59.168Z,99016.50
2022-08-27T21:19:27.573Z,99014.56
2022-08-27T21:21:55.142Z,99016.19
2022-08-27T21:24:22.589Z,99022.03
2022-08-27T21:26:50.094Z,99021.78
2022-08-27T21:29:18.434Z,99013.50
2022-08-27T21:31:45.912Z,99014.94
2022-08-27T21:34:15.440Z,99014.22
2022-08-27T21:36:42.850Z,99019.78
2022-08-27T21:39:10.283Z,99022.94
2022-08-27T21:41:38.250Z,99011.38
2022-08-27T21:44:06.160Z,99016.63
2022-08-27T21:46:33.969Z,99014.91
2022-08-27T21:49:01.457Z,99015.03
2022-08-27T21:51:30.346Z,99012.97
2022-08-27T21:53:59.353Z,99007.47
2022-08-27T21:56:27.326Z,99013.38
2022-08-27T21:58:54.721Z,99017.16
2022-08-27T22:01:22.197Z,99015.94
2022-08-27T22:03:49.674Z,99009.03
2022-08-27T22:06:17.319Z,99006.38
2022-08-27T22:08:46.189Z,99006.16
2022-08-27T22:11:14.605Z,99011.56
2022-08-27T22:13:42.040Z,99003.69
2022-08-27T22:16:10.439Z,99002.03
2022-08-27T22:18:38.620Z,99011.81
2022-08-27T22:21:06.621Z,99002.84
2022-08-27T22:23:34.025Z,98998.69
2022-08-27T22:26:02.903Z,99000.13
2022-08-27T22:28:30.391Z,98998.03
2022-08-27T22:30:57.907Z,98994.53
2022-08-27T22:33:25.341Z,98995.75
2022-08-27T22:35:52.737Z,98994.53
2022-08-27T22:38:20.184Z,98992.59
2022-08-27T22:40:49.345Z,98998.25
2022-08-27T22:43:18.516Z,98990.13
2022-08-27T22:45:46.444Z,98996.16
2022-08-27T22:48:13.985Z,98996.38
2022-08-27T22:50:41.604Z,98995.31
2022-08-27T22:53:09.256Z,98995.13
2022-08-27T22:55:37.033Z,98994.06
2022-08-27T22:58:04.935Z,98992.84
2022-08-27T23:00:35.812Z,98993.03
2022-08-27T23:03:05.748Z,98992.84
2022-08-27T23:05:40.321Z,98996.16
2022-08-27T23:08:11.129Z,98986.81
2022-08-27T23:10:39.194Z,98993.03
2022-08-27T23:13:07.109Z,98991.56
2022-08-27T23:15:36.162Z,98987.41
2022-08-27T23:18:03.619Z,98985.94
2022-08-27T23:20:31.461Z,98986.75
2022-08-27T23:22:58.893Z,98977.56
2022-08-27T23:25:27.099Z,98979.84
2022-08-27T23:27:56.607Z,98980.72
2022-08-27T23:30:27.093Z,98979.66
2022-08-27T23:32:56.829Z,98983.88
2022-08-27T23:35:25.914Z,98969.69
2022-08-27T23:37:53.821Z,98975.75
2022-08-27T23:40:21.483Z,98977.22
2022-08-27T23:42:49.999Z,98978.25
2022-08-27T23:45:20.444Z,98972.84
2022-08-27T23:47:48.455Z,98984.28
2022-08-27T23:50:17.850Z,98979.94
2022-08-27T23:52:45.327Z,98982.81
2022-08-27T23:55:13.520Z,98978.44
2022-08-27T23:57:40.991Z,98978.69
